Time;durP1;ratioP1;P1;durP2;ratioP2;P2;SDS_P1;SDS_P2;PMS_P1;PMS_P2;Temp;Humidity;BMP_temperature;BMP_pressure;BME280_temperature;BME280_humidity;BME280_pressure;Samples;Min_cycle;Max_cycle;Signal;HPM_P1;HPM_P2
2023/01/29 00:01:59;;;;;;;11.25;10.55;;;;;;;;;;4994808;28;20038;-47
2023/01/29 00:04:25;;;;;;;10.20;9.60;;;;;;;;;;4995278;28;20460;-45
2023/01/29 00:06:50;;;;;;;10.68;9.60;;;;;;;;;;4995361;28;20057;-46
2023/01/29 00:09:17;;;;;;;10.52;9.82;;;;;;;;;;5001680;28;20038;-47
2023/01/29 00:11:42;;;;;;;11.40;10.43;;;;;;;;;;4995505;28;20610;-47
2023/01/29 00:14:08;;;;;;;10.55;9.85;;;;;;;;;;4991121;28;20037;-46
2023/01/29 00:16:33;;;;;;;10.10;9.45;;;;;;;;;;4995634;28;20049;-47
2023/01/29 00:19:00;;;;;;;10.20;9.50;;;;;;;;;;4993650;28;20049;-46
2023/01/29 00:21:25;;;;;;;10.00;9.30;;;;;;;;;;4994354;28;20046;-46
2023/01/29 00:23:54;;;;;;;9.20;8.60;;;;;;;;;;4994455;28;20036;-46
2023/01/29 00:26:19;;;;;;;10.35;9.65;;;;;;;;;;4997366;28;20085;-46
2023/01/29 00:28:45;;;;;;;9.43;8.82;;;;;;;;;;4995302;28;20159;-48
2023/01/29 00:31:13;;;;;;;10.27;9.57;;;;;;;;;;4993103;28;20045;-45
2023/01/29 00:33:38;;;;;;;9.50;8.90;;;;;;;;;;4995301;28;20381;-47
2023/01/29 00:36:06;;;;;;;9.30;8.70;;;;;;;;;;4993441;28;20041;-47
2023/01/29 00:38:32;;;;;;;10.35;9.68;;;;;;;;;;4994029;28;20038;-47
2023/01/29 00:46:32;;;;;;;9.45;8.85;;;;;;;;;;4996707;28;20034;-47
2023/01/29 00:48:58;;;;;;;10.32;9.63;;;;;;;;;;4994029;28;20103;-47
2023/01/29 00:51:23;;;;;;;9.38;8.77;;;;;;;;;;4995289;28;20030;-46
2023/01/29 00:53:48;;;;;;;10.00;9.30;;;;;;;;;;4993473;28;20442;-48
2023/01/29 00:56:14;;;;;;;9.93;9.32;;;;;;;;;;4996133;28;20029;-57
2023/01/29 00:58:39;;;;;;;9.93;9.32;;;;;;;;;;4993871;28;20042;-56
2023/01/29 01:01:05;;;;;;;10.32;9.73;;;;;;;;;;4992798;28;20129;-46
2023/01/29 01:03:34;;;;;;;10.38;9.77;;;;;;;;;;4995802;28;20120;-45
2023/01/29 01:06:08;;;;;;;10.05;9.45;;;;;;;;;;4995808;28;20472;-56
2023/01/29 01:11:17;;;;;;;9.80;9.20;;;;;;;;;;4992967;28;20128;-55
2023/01/29 01:13:43;;;;;;;10.13;9.43;;;;;;;;;;4994733;28;20176;-55
2023/01/29 01:16:14;;;;;;;9.85;9.25;;;;;;;;;;4992830;28;20097;-55
2023/01/29 01:18:40;;;;;;;10.80;10.10;;;;;;;;;;4994812;28;20037;-56
2023/01/29 01:21:05;;;;;;;9.80;9.20;;;;;;;;;;4991846;28;20046;-46
2023/01/29 01:23:31;;;;;;;9.65;9.05;;;;;;;;;;4993530;28;20030;-47
2023/01/29 01:25:56;;;;;;;9.73;9.13;;;;;;;;;;4994977;28;20054;-55
2023/01/29 01:28:22;;;;;;;10.70;10.02;;;;;;;;;;4994306;28;20109;-56
2023/01/29 01:30:47;;;;;;;10.52;9.82;;;;;;;;;;4993614;28;20034;-56
2023/01/29 01:33:13;;;;;;;9.60;9.00;;;;;;;;;;4995606;28;20105;-55
2023/01/29 01:35:38;;;;;;;11.45;10.55;;;;;;;;;;5000808;28;20303;-55
2023/01/29 01:38:04;;;;;;;10.27;9.68;;;;;;;;;;4999121;28;20500;-47
2023/01/29 01:40:29;;;;;;;10.45;9.85;;;;;;;;;;4993881;28;20049;-45
2023/01/29 01:42:57;;;;;;;10.35;9.75;;;;;;;;;;4996255;28;20042;-49
2023/01/29 01:45:34;;;;;;;10.95;10.15;;;;;;;;;;4998181;28;20389;-47
2023/01/29 01:48:13;;;;;;;9.85;9.25;;;;;;;;;;4998506;28;20038;-55
2023/01/29 01:51:05;;;;;;;10.05;9.45;;;;;;;;;;4998027;28;20042;-45
2023/01/29 01:53:38;;;;;;;9.70;9.10;;;;;;;;;;4999977;28;20054;-45
2023/01/29 01:56:10;;;;;;;10.02;9.32;;;;;;;;;;4998460;28;20039;-46
2023/01/29 01:58:39;;;;;;;9.93;9.23;;;;;;;;;;4996849;28;20116;-55
2023/01/29 02:01:06;;;;;;;9.98;9.38;;;;;;;;;;4999163;28;20601;-55
2023/01/29 02:09:34;;;;;;;9.93;9.25;;;;;;;;;;4996866;28;20582;-55
2023/01/29 02:12:03;;;;;;;9.10;8.50;;;;;;;;;;5011543;28;20042;-51
2023/01/29 02:14:30;;;;;;;9.90;9.25;;;;;;;;;;4997651;28;20033;-46
2023/01/29 02:16:58;;;;;;;10.10;9.50;;;;;;;;;;5013521;28;20078;-46
2023/01/29 02:19:45;;;;;;;10.65;9.95;;;;;;;;;;4996000;28;20069;-55
2023/01/29 02:22:31;;;;;;;10.50;9.80;;;;;;;;;;4997572;28;20061;-56
2023/01/29 02:25:08;;;;;;;10.40;9.70;;;;;;;;;;4996851;28;20034;-46
2023/01/29 02:28:04;;;;;;;9.45;8.85;;;;;;;;;;4998698;28;20045;-56
2023/01/29 02:30:35;;;;;;;9.60;8.90;;;;;;;;;;4998207;28;20046;-47
2023/01/29 02:33:36;;;;;;;9.70;9.00;;;;;;;;;;4993603;28;20033;-56
2023/01/29 02:36:30;;;;;;;9.82;9.23;;;;;;;;;;4987132;28;20060;-56
2023/01/29 02:39:11;;;;;;;9.80;9.18;;;;;;;;;;4994547;28;20045;-48
2023/01/29 02:41:49;;;;;;;;;;;;;;;;;;5003106;28;20690;-48
2023/01/29 02:44:25;;;;;;;9.57;8.98;;;;;;;;;;5027889;28;19964;-49
2023/01/29 02:46:59;;;;;;;10.38;9.68;;;;;;;;;;4993532;28;20038;-54
2023/01/29 02:49:51;;;;;;;9.60;9.00;;;;;;;;;;4992957;28;20042;-46
2023/01/29 02:52:31;;;;;;;9.95;9.25;;;;;;;;;;4990775;28;21315;-56
2023/01/29 02:55:11;;;;;;;9.57;8.98;;;;;;;;;;4995540;28;20049;-56
2023/01/29 02:57:40;;;;;;;9.90;9.30;;;;;;;;;;4997153;28;20030;-57
2023/01/29 03:00:14;;;;;;;9.75;9.15;;;;;;;;;;4995065;28;20038;-55
2023/01/29 03:02:58;;;;;;;9.85;9.25;;;;;;;;;;4996344;28;20124;-55
2023/01/29 03:05:44;;;;;;;10.10;9.40;;;;;;;;;;4994396;28;20035;-50
2023/01/29 03:08:15;;;;;;;9.18;8.57;;;;;;;;;;4999021;28;20054;-47
2023/01/29 03:10:55;;;;;;;9.55;8.95;;;;;;;;;;4995707;28;20484;-48
2023/01/29 03:13:31;;;;;;;9.48;8.88;;;;;;;;;;4996364;28;20070;-47
2023/01/29 03:16:12;;;;;;;9.65;8.95;;;;;;;;;;4995357;28;20041;-47
2023/01/29 03:18:47;;;;;;;9.60;9.00;;;;;;;;;;4995401;28;20060;-46
2023/01/29 03:32:30;;;;;;;9.98;9.30;;;;;;;;;;4995675;28;20120;-45
2023/01/29 03:35:01;;;;;;;9.70;9.00;;;;;;;;;;4996986;28;20033;-47
2023/01/29 03:37:39;;;;;;;9.35;8.75;;;;;;;;;;4998227;28;20506;-49
2023/01/29 03:40:06;;;;;;;9.82;8.88;;;;;;;;;;4995882;28;20030;-46
2023/01/29 03:42:31;;;;;;;9.77;8.90;;;;;;;;;;4997252;28;20053;-48
2023/01/29 03:45:04;;;;;;;9.45;8.85;;;;;;;;;;4996106;28;20030;-46
2023/01/29 03:47:39;;;;;;;10.00;9.30;;;;;;;;;;4994807;28;20042;-47
2023/01/29 03:50:12;;;;;;;10.75;10.05;;;;;;;;;;4995247;28;20037;-50
2023/01/29 03:52:52;;;;;;;10.90;10.20;;;;;;;;;;4996142;28;20139;-48
2023/01/29 03:55:36;;;;;;;10.10;9.50;;;;;;;;;;4995671;28;20104;-48
2023/01/29 03:58:09;;;;;;;10.73;10.02;;;;;;;;;;4994713;28;20034;-47
2023/01/29 04:00:41;;;;;;;9.73;9.13;;;;;;;;;;4995658;28;20044;-49
2023/01/29 04:03:34;;;;;;;9.57;8.98;;;;;;;;;;4997503;28;20422;-50
2023/01/29 04:06:15;;;;;;;10.15;9.50;;;;;;;;;;4995346;28;20260;-49
2023/01/29 04:08:57;;;;;;;9.88;9.18;;;;;;;;;;4994253;28;20125;-49
2023/01/29 04:11:23;;;;;;;9.63;9.02;;;;;;;;;;4998406;28;20061;-46
2023/01/29 04:13:50;;;;;;;9.68;9.07;;;;;;;;;;4995071;28;20041;-51
2023/01/29 04:16:27;;;;;;;9.25;8.63;;;;;;;;;;4996838;28;20141;-45
2023/01/29 04:18:53;;;;;;;9.20;8.60;;;;;;;;;;4996906;28;20077;-49
2023/01/29 04:21:19;;;;;;;9.40;8.80;;;;;;;;;;4995813;28;20508;-48
2023/01/29 04:23:44;;;;;;;9.68;9.07;;;;;;;;;;4991371;28;20027;-47
2023/01/29 04:26:20;;;;;;;9.80;9.20;;;;;;;;;;4995372;28;20043;-49
2023/01/29 04:29:16;;;;;;;9.55;8.95;;;;;;;;;;4998284;28;20068;-47
2023/01/29 04:31:54;;;;;;;9.18;8.57;;;;;;;;;;4996524;28;20062;-47
2023/01/29 04:34:27;;;;;;;9.90;9.23;;;;;;;;;;4994836;28;20042;-47
2023/01/29 04:37:10;;;;;;;9.30;8.70;;;;;;;;;;4995406;28;20120;-46
2023/01/29 04:40:02;;;;;;;9.25;8.65;;;;;;;;;;4993104;28;20048;-49
2023/01/29 04:42:54;;;;;;;9.93;9.32;;;;;;;;;;4993927;28;20112;-47
2023/01/29 04:45:27;;;;;;;;;;;;;;;;;;4996162;28;20268;-48
2023/01/29 04:47:59;;;;;;;9.07;8.48;;;;;;;;;;4995470;28;20259;-47
2023/01/29 04:50:36;;;;;;;9.25;8.65;;;;;;;;;;4994782;28;20478;-49
2023/01/29 04:53:19;;;;;;;8.82;8.23;;;;;;;;;;4995368;28;20035;-46
2023/01/29 04:55:51;;;;;;;9.80;9.20;;;;;;;;;;4996575;28;20042;-46
2023/01/29 04:58:28;;;;;;;9.18;8.57;;;;;;;;;;4995045;28;20374;-48
2023/01/29 05:00:53;;;;;;;9.07;8.48;;;;;;;;;;4994127;28;20033;-49
2023/01/29 05:03:24;;;;;;;8.35;7.85;;;;;;;;;;5001695;28;20034;-49
2023/01/29 05:05:50;;;;;;;9.10;8.50;;;;;;;;;;4995144;28;20492;-49
2023/01/29 05:08:21;;;;;;;9.27;8.68;;;;;;;;;;4996675;28;20042;-47
2023/01/29 05:10:49;;;;;;;9.95;9.30;;;;;;;;;;4994612;28;20122;-49
2023/01/29 05:13:15;;;;;;;9.05;8.45;;;;;;;;;;4992684;28;20042;-47
2023/01/29 05:15:52;;;;;;;9.82;9.23;;;;;;;;;;4993187;28;20041;-48
2023/01/29 05:18:18;;;;;;;9.68;8.88;;;;;;;;;;4994055;28;20030;-48
2023/01/29 05:20:44;;;;;;;9.52;8.88;;;;;;;;;;4992367;28;20077;-51
2023/01/29 05:23:19;;;;;;;9.95;9.35;;;;;;;;;;4999357;28;20033;-47
2023/01/29 05:25:46;;;;;;;9.10;8.50;;;;;;;;;;4998558;28;20359;-47
2023/01/29 05:28:18;;;;;;;9.45;8.85;;;;;;;;;;4994663;28;20034;-47
2023/01/29 05:30:45;;;;;;;9.68;8.85;;;;;;;;;;4999721;28;20042;-49
2023/01/29 05:33:19;;;;;;;9.52;8.93;;;;;;;;;;5000376;28;20036;-48
2023/01/29 05:35:45;;;;;;;9.20;8.60;;;;;;;;;;5012145;28;20069;-50
2023/01/29 05:38:11;;;;;;;9.00;8.40;;;;;;;;;;4996136;28;20032;-51
2023/01/29 05:40:37;;;;;;;8.98;8.38;;;;;;;;;;5000809;28;20033;-48
2023/01/29 05:43:03;;;;;;;9.20;8.60;;;;;;;;;;4998730;28;20450;-48
2023/01/29 05:45:29;;;;;;;13.25;9.25;;;;;;;;;;4997097;28;20052;-48
2023/01/29 05:47:56;;;;;;;10.60;9.90;;;;;;;;;;4998462;28;20058;-46
2023/01/29 05:50:22;;;;;;;10.40;9.70;;;;;;;;;;4996460;28;20559;-48
2023/01/29 05:52:48;;;;;;;9.10;8.50;;;;;;;;;;4995886;28;20038;-48
2023/01/29 05:55:13;;;;;;;9.20;8.60;;;;;;;;;;4996459;28;20026;-46
2023/01/29 05:57:39;;;;;;;9.02;8.43;;;;;;;;;;4998606;28;20130;-47
2023/01/29 06:00:06;;;;;;;8.60;8.00;;;;;;;;;;4997447;28;20121;-47
2023/01/29 06:02:31;;;;;;;8.90;8.30;;;;;;;;;;4998042;28;20025;-47
2023/01/29 06:04:57;;;;;;;9.07;8.50;;;;;;;;;;4997559;28;20447;-48
2023/01/29 06:07:22;;;;;;;9.52;8.93;;;;;;;;;;4997122;28;20034;-47
2023/01/29 06:09:47;;;;;;;10.60;9.90;;;;;;;;;;4999730;28;20033;-48
2023/01/29 06:12:13;;;;;;;9.77;9.18;;;;;;;;;;4998408;28;20072;-51
2023/01/29 06:14:38;;;;;;;9.15;8.55;;;;;;;;;;4995830;28;20101;-47
2023/01/29 06:17:03;;;;;;;8.57;7.97;;;;;;;;;;5000581;28;20440;-47
2023/01/29 06:19:29;;;;;;;8.93;8.32;;;;;;;;;;4996170;28;20433;-46
2023/01/29 06:21:55;;;;;;;8.57;8.07;;;;;;;;;;4994156;28;20038;-48
2023/01/29 06:24:20;;;;;;;8.70;8.10;;;;;;;;;;4997827;28;20058;-48
2023/01/29 06:26:45;;;;;;;8.82;8.25;;;;;;;;;;4997255;28;20129;-47
2023/01/29 06:29:10;;;;;;;9.10;8.50;;;;;;;;;;5000511;28;20483;-48
2023/01/29 06:31:36;;;;;;;8.40;7.90;;;;;;;;;;5001520;28;20034;-50
2023/01/29 06:34:02;;;;;;;8.65;8.05;;;;;;;;;;4995291;28;20033;-49
2023/01/29 06:36:27;;;;;;;9.10;8.50;;;;;;;;;;4998166;28;20076;-48
2023/01/29 06:38:53;;;;;;;8.45;7.95;;;;;;;;;;4997632;28;20421;-48
2023/01/29 06:41:21;;;;;;;9.20;8.60;;;;;;;;;;4994914;28;20093;-47
2023/01/29 06:43:47;;;;;;;8.80;8.20;;;;;;;;;;4997735;28;20030;-49
2023/01/29 06:46:13;;;;;;;9.00;8.40;;;;;;;;;;5005753;28;20038;-48
2023/01/29 06:48:38;;;;;;;8.90;8.30;;;;;;;;;;4982073;28;20356;-48
2023/01/29 06:51:06;;;;;;;9.27;8.68;;;;;;;;;;4995162;28;20029;-47
2023/01/29 06:53:33;;;;;;;9.00;8.40;;;;;;;;;;4994745;28;20038;-49
2023/01/29 06:55:59;;;;;;;9.50;8.90;;;;;;;;;;4994944;28;20073;-51
2023/01/29 06:58:24;;;;;;;9.30;8.70;;;;;;;;;;4997821;28;20061;-49
2023/01/29 07:00:50;;;;;;;9.50;8.90;;;;;;;;;;4995013;28;20038;-49
2023/01/29 07:03:15;;;;;;;9.80;9.20;;;;;;;;;;4993784;28;20162;-49
2023/01/29 07:05:41;;;;;;;9.57;8.98;;;;;;;;;;4995613;28;20088;-50
2023/01/29 07:08:07;;;;;;;9.70;9.00;;;;;;;;;;5003133;28;20069;-55
2023/01/29 07:10:32;;;;;;;9.57;8.90;;;;;;;;;;4994927;28;20110;-54
2023/01/29 07:12:58;;;;;;;9.32;8.73;;;;;;;;;;4996217;28;20042;-53
2023/01/29 07:15:24;;;;;;;8.93;8.32;;;;;;;;;;5000929;28;20034;-57
2023/01/29 07:18:04;;;;;;;9.65;9.00;;;;;;;;;;4993576;28;20117;-57
2023/01/29 07:20:30;;;;;;;9.65;8.95;;;;;;;;;;4995851;28;20060;-46
2023/01/29 07:22:56;;;;;;;9.38;8.77;;;;;;;;;;4996536;28;20030;-47
2023/01/29 07:25:23;;;;;;;9.63;9.02;;;;;;;;;;4995864;28;20041;-58
2023/01/29 07:27:48;;;;;;;9.13;8.52;;;;;;;;;;4997251;28;20040;-57
2023/01/29 07:30:15;;;;;;;10.73;9.93;;;;;;;;;;4994873;28;20045;-57
2023/01/29 07:32:40;;;;;;;8.80;8.20;;;;;;;;;;4994930;28;20025;-57
2023/01/29 07:35:07;;;;;;;9.48;8.60;;;;;;;;;;4995923;28;20093;-57
2023/01/29 07:37:32;;;;;;;9.00;8.40;;;;;;;;;;4993711;28;20038;-57
2023/01/29 07:39:57;;;;;;;9.43;8.77;;;;;;;;;;4995461;28;20491;-56
2023/01/29 07:42:23;;;;;;;9.10;8.50;;;;;;;;;;4997248;28;20476;-57
2023/01/29 07:44:48;;;;;;;9.15;8.55;;;;;;;;;;4996433;28;20066;-57
2023/01/29 07:47:13;;;;;;;8.75;8.15;;;;;;;;;;4995026;28;20041;-59
2023/01/29 07:49:39;;;;;;;9.73;9.13;;;;;;;;;;4996782;28;20033;-59
2023/01/29 07:52:04;;;;;;;9.95;9.27;;;;;;;;;;4994802;28;20049;-57
2023/01/29 07:54:30;;;;;;;9.23;8.57;;;;;;;;;;4994080;28;20046;-58
2023/01/29 07:56:55;;;;;;;9.18;8.57;;;;;;;;;;4996266;28;20037;-58
2023/01/29 07:59:21;;;;;;;8.93;8.32;;;;;;;;;;4993455;28;20034;-59
2023/01/29 08:01:46;;;;;;;9.23;8.60;;;;;;;;;;4997900;28;20030;-58
2023/01/29 08:04:11;;;;;;;9.18;8.57;;;;;;;;;;4992548;28;20026;-58
2023/01/29 08:06:37;;;;;;;9.98;9.27;;;;;;;;;;4996036;28;22192;-57
2023/01/29 08:09:02;;;;;;;9.32;8.73;;;;;;;;;;4995034;28;20030;-59
2023/01/29 08:11:27;;;;;;;9.50;8.90;;;;;;;;;;4995746;28;20034;-59
2023/01/29 08:13:53;;;;;;;8.60;8.10;;;;;;;;;;4995715;28;20054;-58
2023/01/29 08:16:19;;;;;;;10.23;9.48;;;;;;;;;;4995314;28;20411;-59
2023/01/29 08:18:46;;;;;;;9.38;8.77;;;;;;;;;;4994039;28;20030;-58
2023/01/29 08:21:12;;;;;;;10.52;9.85;;;;;;;;;;4994462;28;20169;-59
2023/01/29 08:23:37;;;;;;;8.68;8.07;;;;;;;;;;4992335;28;20547;-59
2023/01/29 08:26:03;;;;;;;9.88;9.13;;;;;;;;;;4995042;28;20500;-59
2023/01/29 08:28:29;;;;;;;9.27;8.68;;;;;;;;;;4995875;28;20038;-58
2023/01/29 08:30:54;;;;;;;9.02;8.43;;;;;;;;;;4993715;28;20675;-59
2023/01/29 08:33:20;;;;;;;9.32;8.73;;;;;;;;;;4994034;28;20038;-58
2023/01/29 08:35:49;;;;;;;9.43;8.82;;;;;;;;;;4997757;28;20029;-57
2023/01/29 08:38:16;;;;;;;9.02;8.43;;;;;;;;;;4996723;28;20120;-58
2023/01/29 08:40:41;;;;;;;9.48;8.88;;;;;;;;;;4995720;28;20034;-58
2023/01/29 08:43:07;;;;;;;10.23;9.52;;;;;;;;;;4995152;28;20046;-59
2023/01/29 08:45:34;;;;;;;10.73;10.02;;;;;;;;;;4994964;28;20147;-58
2023/01/29 08:47:59;;;;;;;11.13;10.38;;;;;;;;;;4992564;28;20124;-58
2023/01/29 08:50:25;;;;;;;10.32;9.57;;;;;;;;;;4993555;28;20500;-58
2023/01/29 08:52:51;;;;;;;9.82;9.23;;;;;;;;;;4997035;28;20038;-58
2023/01/29 08:55:16;;;;;;;10.50;9.80;;;;;;;;;;4994287;28;20033;-58
2023/01/29 08:57:41;;;;;;;10.23;9.52;;;;;;;;;;4999803;28;20069;-57
2023/01/29 09:00:10;;;;;;;10.60;9.90;;;;;;;;;;4999984;28;20069;-57
2023/01/29 09:02:36;;;;;;;10.20;9.50;;;;;;;;;;4999491;28;20121;-59
2023/01/29 09:05:02;;;;;;;9.93;9.32;;;;;;;;;;4997692;28;20084;-58
2023/01/29 09:07:28;;;;;;;11.73;10.85;;;;;;;;;;5000080;28;20121;-57
2023/01/29 09:09:54;;;;;;;11.65;10.75;;;;;;;;;;5004312;28;20041;-58
2023/01/29 09:12:19;;;;;;;10.60;9.90;;;;;;;;;;4998732;28;20038;-60
2023/01/29 09:14:44;;;;;;;10.52;9.85;;;;;;;;;;4997685;28;20308;-59
2023/01/29 09:17:10;;;;;;;10.73;10.02;;;;;;;;;;4999794;28;20463;-58
2023/01/29 09:19:35;;;;;;;9.82;9.13;;;;;;;;;;4998715;28;20077;-57
2023/01/29 09:22:00;;;;;;;10.55;9.85;;;;;;;;;;4997988;28;20057;-57
2023/01/29 09:24:26;;;;;;;12.07;11.27;;;;;;;;;;5000704;28;20145;-59
2023/01/29 09:26:51;;;;;;;11.05;10.25;;;;;;;;;;5003269;28;20112;-58
2023/01/29 09:29:16;;;;;;;11.10;9.77;;;;;;;;;;5000615;28;20072;-59
2023/01/29 09:31:42;;;;;;;10.40;9.80;;;;;;;;;;4998708;28;21939;-57
2023/01/29 09:34:07;;;;;;;10.90;10.10;;;;;;;;;;4996291;28;20543;-57
2023/01/29 09:36:32;;;;;;;11.43;10.65;;;;;;;;;;5000265;28;20936;-57
2023/01/29 09:38:58;;;;;;;10.80;10.10;;;;;;;;;;5001672;28;20027;-58
2023/01/29 09:41:32;;;;;;;9.57;8.98;;;;;;;;;;4997241;28;20625;-47
2023/01/29 09:44:02;;;;;;;9.48;8.88;;;;;;;;;;4999780;28;20087;-49
2023/01/29 09:46:32;;;;;;;11.30;10.60;;;;;;;;;;4997249;28;20115;-57
2023/01/29 09:49:08;;;;;;;11.82;10.93;;;;;;;;;;4999789;28;20034;-59
2023/01/29 09:51:39;;;;;;;10.93;10.15;;;;;;;;;;4998939;28;20030;-59
2023/01/29 09:54:20;;;;;;;10.85;10.15;;;;;;;;;;4997086;28;20049;-59
2023/01/29 09:56:49;;;;;;;11.63;10.93;;;;;;;;;;4999042;28;20038;-58
2023/01/29 09:59:17;;;;;;;10.52;9.82;;;;;;;;;;4997606;28;20125;-59
2023/01/29 10:02:09;;;;;;;11.13;10.32;;;;;;;;;;4998854;28;20096;-59
2023/01/29 10:05:15;;;;;;;10.35;9.70;;;;;;;;;;4997754;28;20033;-57
2023/01/29 10:08:10;;;;;;;10.35;9.65;;;;;;;;;;4996954;28;20042;-58
2023/01/29 10:10:49;;;;;;;11.73;10.88;;;;;;;;;;4997226;28;20091;-57
2023/01/29 10:13:27;;;;;;;11.75;10.95;;;;;;;;;;4997368;28;20042;-57
2023/01/29 10:16:21;;;;;;;12.20;11.18;;;;;;;;;;4997103;28;20044;-59
2023/01/29 10:19:00;;;;;;;10.35;9.65;;;;;;;;;;4996702;28;20034;-57
2023/01/29 10:21:59;;;;;;;10.98;10.27;;;;;;;;;;4996849;28;20069;-58
2023/01/29 10:24:47;;;;;;;10.52;9.73;;;;;;;;;;4996796;28;20045;-59
2023/01/29 10:27:15;;;;;;;10.07;9.38;;;;;;;;;;4997247;28;20372;-58
2023/01/29 10:29:42;;;;;;;10.82;10.02;;;;;;;;;;4997863;28;20053;-57
2023/01/29 10:32:14;;;;;;;10.30;9.70;;;;;;;;;;4996057;28;20137;-57
2023/01/29 10:35:02;;;;;;;12.23;11.15;;;;;;;;;;4998355;28;20091;-59
2023/01/29 10:37:40;;;;;;;11.15;10.35;;;;;;;;;;4996221;28;20038;-57
2023/01/29 10:40:35;;;;;;;12.05;11.35;;;;;;;;;;4998803;28;20037;-58
2023/01/29 10:43:26;;;;;;;11.23;10.52;;;;;;;;;;4992373;28;20081;-57
2023/01/29 10:46:08;;;;;;;11.32;10.63;;;;;;;;;;4995054;28;20495;-57
2023/01/29 10:49:07;;;;;;;10.85;10.15;;;;;;;;;;4995334;28;20046;-56
2023/01/29 10:52:02;;;;;;;11.90;11.10;;;;;;;;;;4996341;28;20037;-58
2023/01/29 10:54:54;;;;;;;11.85;11.05;;;;;;;;;;4997361;28;20042;-59
2023/01/29 10:57:19;;;;;;;;;;;;;;;;;;4998774;28;20076;-57
2023/01/29 10:59:47;;;;;;;11.27;10.57;;;;;;;;;;4995435;28;19921;-57
2023/01/29 11:02:20;;;;;;;10.68;10.05;;;;;;;;;;4997861;28;20066;-57
2023/01/29 11:04:45;;;;;;;11.27;10.57;;;;;;;;;;4996768;28;20033;-57
2023/01/29 11:07:12;;;;;;;11.00;10.30;;;;;;;;;;4994941;28;20427;-49
2023/01/29 11:09:49;;;;;;;10.38;9.75;;;;;;;;;;4996870;28;20109;-47
2023/01/29 11:12:18;;;;;;;12.25;11.40;;;;;;;;;;4997826;28;20038;-46
2023/01/29 11:15:04;;;;;;;11.93;11.02;;;;;;;;;;4996627;28;20074;-49
2023/01/29 11:17:29;;;;;;;11.05;10.35;;;;;;;;;;4998211;28;20041;-49
2023/01/29 11:19:55;;;;;;;11.70;10.88;;;;;;;;;;5000422;28;20033;-49
2023/01/29 11:22:26;;;;;;;11.75;11.05;;;;;;;;;;4997392;28;20045;-46
2023/01/29 11:25:16;;;;;;;13.02;12.10;;;;;;;;;;4995285;28;20064;-45
2023/01/29 11:27:48;;;;;;;11.25;10.55;;;;;;;;;;4996364;28;20431;-49
2023/01/29 11:30:29;;;;;;;12.25;11.35;;;;;;;;;;4995666;28;20113;-46
2023/01/29 11:32:57;;;;;;;10.63;9.93;;;;;;;;;;4995641;28;20064;-47
2023/01/29 11:35:24;;;;;;;11.30;10.50;;;;;;;;;;4998064;28;20049;-47
2023/01/29 11:37:49;;;;;;;10.55;9.85;;;;;;;;;;4994282;28;20072;-51
2023/01/29 11:40:18;;;;;;;10.20;9.60;;;;;;;;;;4995050;28;20492;-48
2023/01/29 11:42:47;;;;;;;10.60;9.90;;;;;;;;;;4995602;28;20041;-49
2023/01/29 11:45:37;;;;;;;10.90;10.20;;;;;;;;;;5002805;28;20041;-51
2023/01/29 11:48:02;;;;;;;12.32;11.40;;;;;;;;;;4994845;28;20566;-46
2023/01/29 11:50:30;;;;;;;12.95;12.05;;;;;;;;;;4996358;28;20045;-50
2023/01/29 11:52:58;;;;;;;10.38;9.77;;;;;;;;;;4994557;28;20038;-46
2023/01/29 11:55:29;;;;;;;10.90;10.20;;;;;;;;;;4994801;28;20038;-47
2023/01/29 11:58:14;;;;;;;10.35;9.73;;;;;;;;;;4994280;28;20053;-48
2023/01/29 12:00:44;;;;;;;11.45;10.63;;;;;;;;;;4993949;28;20045;-46
2023/01/29 12:03:20;;;;;;;10.68;9.98;;;;;;;;;;5010822;28;20042;-51
2023/01/29 12:06:04;;;;;;;10.52;9.82;;;;;;;;;;4993336;28;20034;-47
2023/01/29 12:08:35;;;;;;;11.27;10.38;;;;;;;;;;4985055;28;20737;-49
2023/01/29 12:11:23;;;;;;;10.07;9.48;;;;;;;;;;4996277;28;20038;-47
2023/01/29 12:13:54;;;;;;;10.77;10.07;;;;;;;;;;4995382;28;20561;-48
2023/01/29 12:16:44;;;;;;;10.07;9.45;;;;;;;;;;4994775;28;20389;-48
2023/01/29 12:19:18;;;;;;;11.35;10.60;;;;;;;;;;5010878;28;20117;-48
2023/01/29 12:21:52;;;;;;;10.10;9.40;;;;;;;;;;4996030;28;20042;-50
2023/01/29 12:24:24;;;;;;;11.48;10.65;;;;;;;;;;4995903;28;20033;-45
2023/01/29 12:26:56;;;;;;;;;;;;;;;;;;4994734;28;20037;-48
2023/01/29 12:29:51;;;;;;;9.85;9.25;;;;;;;;;;4996808;28;19928;-49
2023/01/29 12:32:57;;;;;;;10.80;10.07;;;;;;;;;;4994103;28;20053;-49
2023/01/29 12:35:37;;;;;;;10.57;9.88;;;;;;;;;;4995873;28;20088;-48
2023/01/29 12:38:09;;;;;;;10.35;9.65;;;;;;;;;;4993920;28;20026;-46
2023/01/29 12:40:54;;;;;;;10.38;9.73;;;;;;;;;;4994376;28;20113;-46
2023/01/29 12:43:30;;;;;;;10.43;9.77;;;;;;;;;;4993453;28;20049;-51
2023/01/29 12:45:57;;;;;;;11.00;10.30;;;;;;;;;;4994972;28;20038;-47
2023/01/29 12:48:44;;;;;;;10.18;9.57;;;;;;;;;;4994102;28;20117;-48
2023/01/29 12:51:25;;;;;;;11.52;10.82;;;;;;;;;;4992719;28;20152;-49
2023/01/29 12:54:07;;;;;;;10.88;10.13;;;;;;;;;;4994735;28;20039;-47
2023/01/29 12:56:38;;;;;;;10.23;9.63;;;;;;;;;;4997105;28;20464;-46
2023/01/29 12:59:27;;;;;;;10.10;9.50;;;;;;;;;;4995277;28;20122;-45
2023/01/29 13:01:57;;;;;;;11.60;10.90;;;;;;;;;;4994470;28;20154;-49
2023/01/29 13:04:38;;;;;;;10.90;10.00;;;;;;;;;;4996210;28;20812;-59
2023/01/29 13:07:12;;;;;;;10.70;10.00;;;;;;;;;;4994567;28;20030;-57
2023/01/29 13:09:42;;;;;;;10.90;10.20;;;;;;;;;;4994182;28;20038;-57
2023/01/29 13:12:19;;;;;;;10.93;10.23;;;;;;;;;;4996049;28;20133;-58
2023/01/29 13:14:49;;;;;;;10.25;9.55;;;;;;;;;;4995006;28;20045;-56
2023/01/29 13:17:40;;;;;;;10.75;10.05;;;;;;;;;;4998370;28;20038;-57
2023/01/29 13:20:17;;;;;;;10.30;9.70;;;;;;;;;;4997141;28;20087;-58
2023/01/29 13:22:45;;;;;;;9.80;9.15;;;;;;;;;;4994513;28;20038;-59
2023/01/29 13:25:18;;;;;;;10.02;9.32;;;;;;;;;;4992456;28;20038;-57
2023/01/29 13:27:46;;;;;;;10.60;9.90;;;;;;;;;;4995411;28;20128;-57
2023/01/29 13:30:30;;;;;;;11.60;10.55;;;;;;;;;;4996780;28;20037;-56
2023/01/29 13:33:10;;;;;;;9.60;9.00;;;;;;;;;;4995465;28;20448;-56
2023/01/29 13:35:40;;;;;;;9.90;9.30;;;;;;;;;;4992145;28;20361;-58
2023/01/29 13:38:25;;;;;;;10.65;9.95;;;;;;;;;;4995335;28;20026;-57
2023/01/29 13:40:55;;;;;;;11.48;10.77;;;;;;;;;;4997955;28;20375;-58
2023/01/29 13:43:22;;;;;;;17.13;10.85;;;;;;;;;;4996696;28;20113;-57
2023/01/29 13:45:50;;;;;;;9.93;9.32;;;;;;;;;;4997841;28;20124;-55
2023/01/29 13:48:31;;;;;;;11.48;10.77;;;;;;;;;;4999793;28;20504;-56
2023/01/29 13:51:01;;;;;;;10.32;9.73;;;;;;;;;;4996786;28;20404;-56
2023/01/29 13:53:30;;;;;;;10.38;9.73;;;;;;;;;;4984033;28;20048;-55
2023/01/29 13:56:34;;;;;;;10.20;9.52;;;;;;;;;;4999019;28;20368;-57
2023/01/29 13:59:01;;;;;;;9.98;9.38;;;;;;;;;;4996037;28;20034;-59
2023/01/29 14:01:45;;;;;;;10.82;10.13;;;;;;;;;;4998280;28;20073;-58
2023/01/29 14:04:29;;;;;;;10.00;9.40;;;;;;;;;;4996512;28;20034;-57
2023/01/29 14:06:56;;;;;;;10.35;9.70;;;;;;;;;;4997250;28;20096;-60
2023/01/29 14:09:48;;;;;;;12.00;11.10;;;;;;;;;;4996192;28;20060;-56
2023/01/29 14:12:22;;;;;;;10.57;9.88;;;;;;;;;;4989361;28;20046;-58
2023/01/29 14:14:47;;;;;;;10.50;9.85;;;;;;;;;;4999217;28;20397;-59
2023/01/29 14:17:15;;;;;;;10.02;9.43;;;;;;;;;;4998829;28;20128;-55
2023/01/29 14:19:49;;;;;;;11.25;10.55;;;;;;;;;;4998049;28;20050;-55
2023/01/29 14:22:27;;;;;;;10.40;9.80;;;;;;;;;;4998671;28;20104;-56
2023/01/29 14:24:56;;;;;;;10.18;9.57;;;;;;;;;;4998547;28;20424;-55
2023/01/29 14:27:26;;;;;;;10.63;9.93;;;;;;;;;;4998341;28;20333;-58
2023/01/29 14:29:59;;;;;;;10.18;9.48;;;;;;;;;;4999167;28;20484;-56
2023/01/29 14:32:25;;;;;;;10.68;9.98;;;;;;;;;;5000549;28;20046;-56
2023/01/29 14:34:53;;;;;;;10.23;9.63;;;;;;;;;;5000196;28;20483;-59
2023/01/29 14:37:27;;;;;;;9.80;9.20;;;;;;;;;;5000665;28;20080;-58
2023/01/29 14:40:17;;;;;;;9.85;9.25;;;;;;;;;;4996295;28;20919;-60
2023/01/29 14:43:03;;;;;;;10.43;9.82;;;;;;;;;;4996390;28;20054;-58
2023/01/29 14:45:31;;;;;;;9.90;9.30;;;;;;;;;;4996092;28;20460;-57
2023/01/29 14:47:58;;;;;;;11.25;10.48;;;;;;;;;;4996041;28;20038;-57
2023/01/29 14:50:36;;;;;;;10.35;9.75;;;;;;;;;;4997490;28;20100;-57
2023/01/29 14:53:10;;;;;;;10.68;9.98;;;;;;;;;;4998164;28;20049;-56
2023/01/29 14:55:39;;;;;;;10.88;10.18;;;;;;;;;;4995806;28;20099;-55
2023/01/29 14:58:09;;;;;;;10.70;10.00;;;;;;;;;;4998037;28;20113;-55
2023/01/29 15:00:37;;;;;;;10.85;10.15;;;;;;;;;;4994076;28;20041;-56
2023/01/29 15:03:13;;;;;;;11.63;10.93;;;;;;;;;;4997054;28;20505;-57
2023/01/29 15:05:40;;;;;;;10.90;10.23;;;;;;;;;;4997035;28;20053;-57
2023/01/29 15:08:16;;;;;;;11.88;11.18;;;;;;;;;;4995316;28;20062;-56
2023/01/29 15:10:47;;;;;;;12.18;11.27;;;;;;;;;;4996487;28;20030;-57
2023/01/29 15:13:23;;;;;;;10.82;10.15;;;;;;;;;;4996765;28;20060;-57
2023/01/29 15:15:56;;;;;;;10.68;10.05;;;;;;;;;;4996868;28;20049;-57
2023/01/29 15:18:41;;;;;;;10.40;9.80;;;;;;;;;;4995289;28;20042;-56
2023/01/29 15:21:11;;;;;;;10.40;9.75;;;;;;;;;;4993649;28;20038;-56
2023/01/29 15:23:37;;;;;;;10.50;9.90;;;;;;;;;;4994884;28;20100;-57
2023/01/29 15:26:06;;;;;;;10.48;9.77;;;;;;;;;;4995090;28;20468;-57
2023/01/29 15:28:34;;;;;;;9.30;8.70;;;;;;;;;;4996037;28;20101;-55